Home   Weather   USA   Albany   Past weeks
Flag for USA

Past Weather in Albany, New York, USA — Yesterday and Last 2 Weeks

Currently: 82 °F. Passing clouds. (Weather station: Albany County Airport, USA). See more current weather

Past Weather in Albany — Graph

°F

Albany Temperature Yesterday

Maximum temperature yesterday: 79 °F (at 4:51 pm)
Minimum temperature yesterday: 63 °F (at 3:51 am)
Average temperature yesterday: 70 °F

High & Low Weather Summary for the Past Weeks

 TemperatureHumidityPressure
High84 °F (Jul 14, 2:21 pm)100% (Jul 11, 5:51 pm)30.25 "Hg (Jul 11, 5:51 pm)
Low54 °F (Jul 22, 4:51 am)39% (Jul 24, 3:51 pm)29.79 "Hg (Jul 25, 5:51 pm)
Average68 °F88%30.03 "Hg
* Reported Jul 11 3:51 pm — Jul 26 3:51 pm, Albany. Weather by CustomWeather, © 2021

Note: Actual official high and low records may vary slightly from our data, if they occured in-between our weather recording intervals... More about our weather records

Albany Weather History for the Previous 24 Hours

Scroll right to see more
 ConditionsComfort  
Time TempWeatherWind HumidityBarometerVisibility
3:51 pm
Mon, Jul 26
82 °FPassing clouds.14 mph44%29.88 "Hg10 mi
2:51 pm83 °FHaze.15 mph46%29.88 "Hg5 mi
1:51 pm81 °FHaze.15 mph51%29.89 "Hg4 mi
12:51 pm79 °FHaze.13 mph58%29.89 "Hg4 mi
11:51 am78 °FHaze.9 mph62%29.89 "Hg5 mi
10:51 am76 °FHaze.6 mph72%29.90 "Hg6 mi
9:51 am72 °FSunny.7 mph81%29.90 "Hg6 mi
8:51 am69 °FFog.6 mph90%29.90 "Hg6 mi
8:16 am67 °FFog.5 mph100%29.90 "Hg2 mi
7:51 am65 °FFog.6 mph100%29.89 "Hg1 mi
7:13 am65 °FFog.3 mph100%29.89 "Hg1 mi
6:58 am65 °FFog.No wind100%29.89 "Hg1 mi
6:22 am65 °FFog.3 mph100%29.88 "Hg0 mi
5:51 am65 °FFog.3 mph100%29.88 "Hg0 mi
5:21 am65 °FFog.5 mph100%29.88 "Hg0 mi
5:07 am65 °FFog.5 mph100%29.88 "Hg1 mi
4:51 am65 °FFog.5 mph100%29.88 "Hg1 mi
3:51 am66 °FFog.No wind100%29.87 "Hg1 mi
2:51 am67 °FFog.3 mph100%29.87 "Hg1 mi
2:27 am65 °FFog.5 mph100%29.88 "Hg1 mi
2:00 am65 °FFog.3 mph100%29.87 "Hg1 mi
1:28 am67 °FFog.3 mph100%29.88 "Hg1 mi
1:16 am67 °FFog.No wind100%29.87 "Hg1 mi
12:51 am67 °FFog.6 mph100%29.86 "Hg2 mi
11:51 pm
Sun, Jul 25
66 °FFog.No wind100%29.85 "Hg10 mi
10:58 pm68 °FFog.No wind100%29.86 "Hg3 mi
10:11 pm69 °FFog.No wind100%29.86 "Hg2 mi
9:51 pm71 °FPassing clouds.No wind100%29.86 "Hg7 mi
8:51 pm72 °FPassing clouds.No wind100%29.84 "Hg7 mi
7:51 pm73 °FScattered clouds.5 mph100%29.82 "Hg9 mi
7:31 pm73 °FBroken clouds.5 mph97%29.82 "Hg10 mi
6:51 pm74 °FThunderstorms. Fog.9 mph88%29.81 "Hg5 mi
6:38 pm75 °FThunderstorms. Broken clouds.8 mph88%29.80 "Hg10 mi
5:51 pm78 °FBroken clouds.9 mph76%29.79 "Hg10 mi
4:51 pm79 °FScattered clouds.8 mph74%29.80 "Hg10 mi
Weather by CustomWeather, © 2021

See weather overview